Time;durP1;ratioP1;P1;durP2;ratioP2;P2;SDS_P1;SDS_P2;PMS_P1;PMS_P2;Temp;Humidity;BMP_temperature;BMP_pressure;BME280_temperature;BME280_humidity;BME280_pressure;Samples;Min_cycle;Max_cycle;Signal;HPM_P1;HPM_P2
2023/02/26 00:01:49;;;;;;;13.90;5.50;;;;;;;7.23;60.09;99909.74;107658;1254;97829;-61
2023/02/26 00:04:18;;;;;;;11.20;5.80;;;;;;;7.20;60.04;99903.88;107599;1254;110818;-59
2023/02/26 00:06:52;;;;;;;11.20;4.90;;;;;;;7.20;59.77;99904.48;107608;1254;110826;-58
2023/02/26 00:09:27;;;;;;;10.70;4.60;;;;;;;7.21;59.98;99904.39;107528;1254;109315;-59
2023/02/26 00:11:57;;;;;;;15.80;4.90;;;;;;;7.17;59.87;99903.13;107584;1254;97719;-59
2023/02/26 00:14:28;;;;;;;18.50;4.20;;;;;;;7.15;60.07;99898.45;107594;1253;97890;-59
2023/02/26 00:17:26;;;;;;;21.10;4.60;;;;;;;7.16;60.20;99900.50;107599;1254;111268;-59
2023/02/26 00:19:55;;;;;;;10.80;4.60;;;;;;;7.18;60.54;99902.33;107589;1253;108254;-61
2023/02/26 00:22:25;;;;;;;13.10;5.20;;;;;;;7.20;60.36;99896.56;107610;1254;107579;-61
2023/02/26 00:24:53;;;;;;;15.90;5.40;;;;;;;7.23;60.42;99892.42;107588;1254;97713;-60
2023/02/26 00:27:21;;;;;;;9.20;4.80;;;;;;;7.23;60.36;99889.19;107592;1254;97815;-60
2023/02/26 00:29:50;;;;;;;13.00;4.90;;;;;;;7.23;60.37;99887.59;107563;1254;112754;-61
2023/02/26 00:32:19;;;;;;;21.80;5.40;;;;;;;7.24;60.36;99894.17;107602;1254;108738;-60
2023/02/26 00:34:49;;;;;;;18.50;5.70;;;;;;;7.23;60.14;99894.23;107611;1253;108793;-61
2023/02/26 00:37:53;;;;;;;14.30;5.20;;;;;;;7.23;60.02;99904.04;107565;1255;97871;-61
2023/02/26 00:40:25;;;;;;;15.40;5.20;;;;;;;7.23;60.01;99898.37;107565;1254;98728;-61
2023/02/26 00:42:54;;;;;;;21.80;7.50;;;;;;;7.18;59.87;99900.19;107581;1254;112473;-60
2023/02/26 00:45:23;;;;;;;16.10;6.50;;;;;;;7.11;59.74;99905.57;107572;1254;109259;-62
2023/02/26 00:48:25;;;;;;;18.90;6.30;;;;;;;7.07;59.91;99911.33;107578;1254;108671;-59
2023/02/26 00:51:11;;;;;;;25.90;6.60;;;;;;;7.04;60.02;99923.30;107497;1257;97967;-60
2023/02/26 00:53:48;;;;;;;12.60;6.10;;;;;;;6.99;60.08;99928.75;107460;1257;97720;-61
2023/02/26 00:56:17;;;;;;;15.00;7.00;;;;;;;6.93;60.32;99934.30;107557;1254;111446;-60
2023/02/26 00:58:46;;;;;;;15.50;7.50;;;;;;;6.88;60.19;99936.94;107555;1254;110074;-60
2023/02/26 01:01:14;;;;;;;16.20;7.10;;;;;;;6.84;60.09;99939.98;107523;1258;108744;-61
2023/02/26 01:03:43;;;;;;;11.70;6.60;;;;;;;6.79;60.13;99943.67;107525;1259;97805;-61
2023/02/26 01:06:15;;;;;;;13.10;6.90;;;;;;;6.74;60.58;99948.02;107558;1254;98396;-61
2023/02/26 01:08:57;;;;;;;15.70;6.30;;;;;;;6.69;60.59;99944.66;107571;1254;112059;-60
2023/02/26 01:11:26;;;;;;;17.90;7.00;;;;;;;6.67;60.66;99942.90;107449;1254;109794;-61
2023/02/26 01:13:55;;;;;;;17.00;6.00;;;;;;;6.62;60.77;99946.75;107557;1254;107066;-59
2023/02/26 01:16:27;;;;;;;19.60;7.30;;;;;;;6.59;60.94;99948.95;107543;1254;97896;-60
2023/02/26 01:19:12;;;;;;;17.70;10.40;;;;;;;6.57;61.09;99949.59;107579;1257;97720;-62
2023/02/26 01:21:47;;;;;;;12.20;7.10;;;;;;;6.54;61.02;99943.82;107579;1253;110926;-60
2023/02/26 01:24:19;;;;;;;12.30;6.60;;;;;;;6.50;61.13;99939.13;107554;1254;109198;-61
2023/02/26 01:26:49;;;;;;;16.30;7.00;;;;;;;6.48;61.19;99943.06;107571;1254;107108;-61
2023/02/26 01:29:18;;;;;;;14.10;7.00;;;;;;;6.47;61.40;99939.75;107553;1259;97827;-61
2023/02/26 01:32:13;;;;;;;13.90;7.10;;;;;;;6.45;61.26;99944.36;107468;1259;98362;-59
2023/02/26 01:34:45;;;;;;;;;;;;;;;6.43;61.51;99948.09;107602;1254;111037;-59
2023/02/26 01:37:57;;;;;;;8.80;5.50;;;;;;;6.40;61.27;99949.29;107563;1254;109470;-59
2023/02/26 01:41:06;;;;;;;10.30;5.70;;;;;;;6.39;61.39;99948.31;107398;1257;108625;-60
2023/02/26 01:43:45;;;;;;;12.00;6.60;;;;;;;6.39;61.44;99949.59;107444;1259;97835;-61
2023/02/26 01:46:36;;;;;;;20.70;6.70;;;;;;;6.35;62.04;99949.12;107353;1259;97854;-61
2023/02/26 01:49:13;;;;;;;13.80;6.30;;;;;;;6.33;61.78;99953.55;107480;1254;111786;-59
2023/02/26 01:51:46;;;;;;;15.50;8.30;;;;;;;6.34;62.41;99956.34;107538;1254;109476;-60
2023/02/26 01:54:18;;;;;;;13.90;8.00;;;;;;;6.28;62.92;99954.36;107529;1254;108350;-61
2023/02/26 01:56:54;;;;;;;12.80;6.80;;;;;;;6.24;63.06;99953.59;107510;1254;97817;-60
2023/02/26 01:59:23;;;;;;;14.30;7.40;;;;;;;6.28;63.69;99952.95;107376;1254;97940;-60
2023/02/26 02:01:55;;;;;;;14.60;6.90;;;;;;;6.30;63.57;99947.82;107548;1254;111028;-60
2023/02/26 02:04:25;;;;;;;14.50;7.40;;;;;;;6.29;63.67;99947.54;107564;1258;107713;-60
2023/02/26 02:06:54;;;;;;;17.10;6.90;;;;;;;6.34;64.42;99946.02;107508;1258;107564;-60
2023/02/26 02:09:22;;;;;;;12.80;6.50;;;;;;;6.37;64.18;99942.70;107497;1258;97831;-60
2023/02/26 02:12:10;;;;;;;11.70;6.90;;;;;;;6.43;64.12;99945.30;107581;1253;97920;-60
2023/02/26 02:14:45;;;;;;;12.80;6.70;;;;;;;6.49;64.24;99949.94;107214;1254;111743;-59
2023/02/26 02:17:21;;;;;;;10.40;6.20;;;;;;;6.54;64.04;99955.23;107341;1259;109720;-59
2023/02/26 02:20:28;;;;;;;9.10;6.00;;;;;;;6.58;64.05;99962.52;107515;1254;108216;-59
2023/02/26 02:23:02;;;;;;;10.10;6.00;;;;;;;6.60;63.96;99967.21;107485;1254;97824;-60
2023/02/26 02:26:01;;;;;;;11.50;6.00;;;;;;;6.62;64.01;99973.61;107511;1258;97768;-60
2023/02/26 02:28:52;;;;;;;11.70;6.10;;;;;;;6.61;63.82;99977.24;107527;1254;112348;-60
2023/02/26 02:32:01;;;;;;;11.90;5.80;;;;;;;6.59;63.61;99977.05;107518;1259;110488;-60
2023/02/26 02:34:44;;;;;;;8.70;5.50;;;;;;;6.53;63.91;99984.85;107516;1254;108826;-62
2023/02/26 02:37:27;;;;;;;8.20;5.20;;;;;;;6.50;63.87;99988.91;107484;1259;97906;-59
2023/02/26 02:40:07;;;;;;;6.90;4.70;;;;;;;6.51;63.88;99991.61;107539;1255;97897;-59
2023/02/26 02:42:54;;;;;;;10.50;5.10;;;;;;;6.53;63.95;99999.52;107498;1254;111032;-61
2023/02/26 02:45:39;;;;;;;8.30;5.30;;;;;;;6.55;63.86;100007.82;107587;1255;109997;-60
2023/02/26 02:48:15;;;;;;;8.90;4.80;;;;;;;6.57;63.95;100008.60;107474;1254;108179;-61
2023/02/26 02:50:51;;;;;;;7.30;5.20;;;;;;;6.56;63.75;100010.45;107554;1257;97816;-59
2023/02/26 02:53:25;;;;;;;9.50;4.90;;;;;;;6.57;63.83;100018.91;107480;1253;98885;-59
2023/02/26 02:56:06;;;;;;;12.00;6.00;;;;;;;6.57;63.49;100025.34;107568;1254;112362;-60
2023/02/26 02:58:41;;;;;;;10.70;5.30;;;;;;;6.57;63.49;100032.31;107498;1254;109739;-60
2023/02/26 03:01:14;;;;;;;10.30;5.80;;;;;;;6.56;63.50;100032.20;107472;1254;108737;-60
2023/02/26 03:03:54;;;;;;;15.50;6.50;;;;;;;6.56;63.35;100033.44;107588;1254;97964;-60
2023/02/26 03:06:23;;;;;;;10.60;5.80;;;;;;;6.54;63.27;100024.51;107489;1255;97706;-59
2023/02/26 03:08:52;;;;;;;10.50;5.90;;;;;;;6.52;63.45;100022.35;107470;1254;112505;-60
2023/02/26 03:11:21;;;;;;;10.40;5.50;;;;;;;6.50;63.18;100022.02;107497;1254;109095;-61
2023/02/26 03:13:52;;;;;;;11.60;5.70;;;;;;;6.42;63.27;100016.61;107571;1256;107143;-59
2023/02/26 03:16:39;;;;;;;11.30;6.00;;;;;;;6.32;63.40;100022.75;107558;1257;97806;-60
2023/02/26 03:19:20;;;;;;;8.90;5.60;;;;;;;6.28;63.59;100030.55;107606;1256;97919;-60
2023/02/26 03:22:12;;;;;;;11.00;6.20;;;;;;;6.26;63.59;100029.28;107640;1254;111509;-59
2023/02/26 03:25:06;;;;;;;12.20;6.50;;;;;;;6.26;63.77;100026.45;107604;1254;109597;-59
2023/02/26 03:27:51;;;;;;;9.40;4.80;;;;;;;6.25;63.79;100030.95;107623;1256;107697;-59
2023/02/26 03:30:31;;;;;;;11.90;5.40;;;;;;;6.24;64.11;100037.30;107516;1260;97915;-59
2023/02/26 03:33:05;;;;;;;9.80;6.00;;;;;;;6.19;64.30;100036.27;107540;1254;97859;-60
2023/02/26 03:35:55;;;;;;;13.80;6.20;;;;;;;6.16;64.59;100041.58;107445;1259;111225;-60
2023/02/26 03:38:30;;;;;;;10.20;5.80;;;;;;;6.14;64.78;100042.60;107472;1259;109128;-60
2023/02/26 03:41:10;;;;;;;12.20;6.10;;;;;;;6.14;64.75;100053.23;107564;1261;108876;-60
2023/02/26 03:43:52;;;;;;;11.80;5.90;;;;;;;6.15;65.04;100053.52;107595;1256;97912;-60
2023/02/26 03:46:28;;;;;;;15.90;5.70;;;;;;;6.15;65.00;100057.42;107586;1254;97827;-60
2023/02/26 03:49:02;;;;;;;12.50;6.40;;;;;;;6.18;65.29;100066.28;107560;1255;111239;-58
2023/02/26 03:51:32;;;;;;;9.40;5.50;;;;;;;6.19;65.49;100070.50;107579;1254;108811;-60
2023/02/26 03:54:42;;;;;;;9.80;5.60;;;;;;;6.17;65.38;100077.37;107461;1257;109556;-60
2023/02/26 03:57:30;;;;;;;12.70;5.90;;;;;;;6.20;65.67;100073.61;107567;1257;97821;-58
2023/02/26 04:00:20;;;;;;;13.10;6.00;;;;;;;6.24;65.71;100070.08;107453;1256;97946;-61
2023/02/26 04:02:54;;;;;;;10.10;5.30;;;;;;;6.28;65.86;100074.05;107580;1254;110925;-61
2023/02/26 04:05:29;;;;;;;9.40;5.40;;;;;;;6.33;65.94;100079.73;107475;1255;108618;-60
2023/02/26 04:07:58;;;;;;;6.60;4.60;;;;;;;6.37;66.18;100080.08;107437;1253;108180;-59
2023/02/26 04:10:33;;;;;;;9.10;5.40;;;;;;;6.40;66.00;100080.14;107545;1257;97859;-60
2023/02/26 04:13:02;;;;;;;9.50;5.40;;;;;;;6.43;65.98;100081.52;107470;1254;97944;-60
2023/02/26 04:15:30;;;;;;;8.40;5.10;;;;;;;6.46;65.95;100083.09;107615;1253;111908;-60
2023/02/26 04:17:59;;;;;;;9.10;5.30;;;;;;;6.48;66.09;100083.59;107475;1254;109756;-60
2023/02/26 04:20:28;;;;;;;9.30;5.40;;;;;;;6.51;65.97;100085.65;107562;1254;107816;-60
2023/02/26 04:22:57;;;;;;;8.70;5.20;;;;;;;6.53;65.82;100088.75;107588;1254;97931;-60
2023/02/26 04:25:25;;;;;;;14.10;5.50;;;;;;;6.50;65.87;100087.02;107476;1254;97823;-60
2023/02/26 04:27:55;;;;;;;11.80;4.50;;;;;;;6.48;65.90;100086.50;107558;1255;111696;-60
2023/02/26 04:30:23;;;;;;;11.70;5.00;;;;;;;6.46;65.72;100092.13;107447;1254;108747;-60
2023/02/26 04:32:53;;;;;;;12.60;5.40;;;;;;;6.47;65.99;100092.61;107438;1260;108839;-59
2023/02/26 04:35:22;;;;;;;7.00;4.30;;;;;;;6.49;66.14;100088.92;107447;1253;97925;-61
2023/02/26 04:37:50;;;;;;;11.80;5.30;;;;;;;6.50;66.29;100097.15;107478;1260;97861;-61
2023/02/26 04:40:19;;;;;;;9.80;4.90;;;;;;;6.53;66.10;100104.41;107491;1253;111967;-61
2023/02/26 04:42:48;;;;;;;9.20;5.40;;;;;;;6.53;65.96;100100.14;107429;1254;110646;-60
2023/02/26 04:45:21;;;;;;;9.00;5.30;;;;;;;6.51;65.78;100101.35;107572;1257;107738;-60
2023/02/26 04:47:49;;;;;;;20.90;6.20;;;;;;;6.50;65.90;100100.36;107524;1253;98466;-61
2023/02/26 04:50:17;;;;;;;27.40;6.90;;;;;;;6.47;65.89;100104.77;107529;1257;97847;-61
2023/02/26 04:52:47;;;;;;;18.60;6.50;;;;;;;6.45;66.09;100103.62;107561;1254;111114;-60
2023/02/26 04:55:15;;;;;;;17.20;6.70;;;;;;;6.45;66.10;100111.00;107573;1256;109590;-61
2023/02/26 04:57:44;;;;;;;12.80;5.50;;;;;;;6.44;66.40;100114.73;107603;1253;108578;-60
2023/02/26 05:00:14;;;;;;;12.80;5.90;;;;;;;6.46;66.44;100118.37;107593;1257;97813;-60
2023/02/26 05:02:42;;;;;;;11.00;5.80;;;;;;;6.47;66.60;100121.28;107612;1254;97708;-61
2023/02/26 05:05:11;;;;;;;9.20;5.30;;;;;;;6.44;66.49;100113.88;107473;1257;112413;-60
2023/02/26 05:07:40;;;;;;;11.00;5.50;;;;;;;6.39;66.45;100114.07;107610;1254;108683;-61
2023/02/26 05:10:09;;;;;;;10.30;5.30;;;;;;;6.38;66.62;100114.14;107546;1254;107702;-61
2023/02/26 05:12:37;;;;;;;9.20;5.00;;;;;;;6.40;66.59;100112.02;107482;1254;97959;-61
2023/02/26 05:15:07;;;;;;;11.00;5.00;;;;;;;6.39;66.73;100117.09;107463;1253;98474;-60
2023/02/26 05:17:35;;;;;;;12.00;5.50;;;;;;;6.40;66.59;100118.33;107612;1254;111011;-59
2023/02/26 05:20:05;;;;;;;12.30;4.90;;;;;;;6.40;66.74;100120.02;107463;1254;108695;-60
2023/02/26 05:22:33;;;;;;;9.10;5.50;;;;;;;6.41;66.76;100124.44;107350;1259;107146;-59
2023/02/26 05:25:03;;;;;;;12.20;5.60;;;;;;;6.39;67.03;100129.42;107429;1254;97834;-61
2023/02/26 05:27:33;;;;;;;16.70;5.90;;;;;;;6.40;67.31;100135.77;107486;1257;97701;-61
2023/02/26 05:30:01;;;;;;;20.30;6.40;;;;;;;6.41;67.34;100142.04;107581;1254;112190;-60
2023/02/26 05:32:30;;;;;;;11.10;5.70;;;;;;;6.43;67.50;100146.73;107616;1254;110130;-60
2023/02/26 05:34:59;;;;;;;18.30;6.50;;;;;;;6.39;67.53;100155.02;107574;1257;106369;-61
2023/02/26 05:37:27;;;;;;;13.80;5.70;;;;;;;6.36;67.92;100163.70;107589;1254;97920;-61
2023/02/26 05:39:56;;;;;;;11.30;5.80;;;;;;;6.24;68.41;100172.09;107568;1254;98476;-60
2023/02/26 05:42:24;;;;;;;10.90;5.50;;;;;;;6.13;69.58;100174.63;107460;1260;112298;-61
2023/02/26 05:44:53;;;;;;;11.10;4.80;;;;;;;6.01;70.02;100180.17;107595;1253;109866;-60
2023/02/26 05:47:23;;;;;;;9.30;4.00;;;;;;;5.93;70.42;100188.07;107482;1254;107405;-60
2023/02/26 05:49:51;;;;;;;7.90;3.40;;;;;;;5.92;70.46;100198.95;107517;1254;97962;-61
2023/02/26 05:52:19;;;;;;;11.00;4.30;;;;;;;5.94;70.36;100200.95;107466;1254;97751;-61
2023/02/26 05:54:47;;;;;;;10.70;3.90;;;;;;;5.95;71.03;100208.84;107500;1253;112242;-60
2023/02/26 05:57:16;;;;;;;9.80;4.20;;;;;;;5.92;71.13;100213.35;107584;1254;110079;-61
2023/02/26 05:59:44;;;;;;;6.30;3.90;;;;;;;5.92;71.36;100214.60;107530;1254;108756;-61
2023/02/26 06:02:13;;;;;;;6.50;3.50;;;;;;;5.92;71.41;100219.95;107573;1254;97907;-61
2023/02/26 06:04:44;;;;;;;7.20;4.50;;;;;;;5.94;71.14;100216.95;107557;1254;98383;-60
2023/02/26 06:07:13;;;;;;;16.50;7.90;;;;;;;5.97;70.90;100221.16;107578;1254;111564;-61
2023/02/26 06:09:42;;;;;;;10.00;5.40;;;;;;;6.01;71.07;100220.23;107564;1254;109718;-62
2023/02/26 06:12:10;;;;;;;7.30;4.70;;;;;;;6.05;71.09;100217.95;107569;1254;108329;-60
2023/02/26 06:14:38;;;;;;;8.70;4.70;;;;;;;6.08;70.91;100218.95;107559;1254;97694;-59
2023/02/26 06:17:07;;;;;;;9.00;4.90;;;;;;;6.09;70.94;100220.51;107585;1254;98559;-60
2023/02/26 06:19:35;;;;;;;7.70;4.80;;;;;;;6.08;71.29;100228.59;107572;1254;112710;-58
2023/02/26 06:22:04;;;;;;;6.70;4.40;;;;;;;6.06;71.25;100227.45;107570;1253;109862;-60
2023/02/26 06:24:32;;;;;;;6.90;4.00;;;;;;;6.07;71.33;100235.05;107580;1253;109754;-60
2023/02/26 06:27:01;;;;;;;5.90;3.50;;;;;;;6.05;71.69;100232.55;107593;1255;97876;-60
2023/02/26 06:29:29;;;;;;;5.80;4.20;;;;;;;6.04;71.89;100233.83;107605;1254;97950;-61
2023/02/26 06:31:58;;;;;;;5.50;3.50;;;;;;;5.99;73.11;100240.14;107455;1259;111448;-60
2023/02/26 06:34:26;;;;;;;4.80;2.90;;;;;;;5.89;73.40;100245.33;107605;1254;108839;-60
2023/02/26 06:36:55;;;;;;;8.60;3.20;;;;;;;5.79;74.33;100254.95;107559;1254;107984;-61
2023/02/26 06:39:23;;;;;;;5.20;3.40;;;;;;;5.69;73.87;100259.12;107562;1253;97928;-61
2023/02/26 06:41:51;;;;;;;6.60;2.70;;;;;;;5.66;73.75;100262.05;107590;1253;97921;-59
2023/02/26 06:44:20;;;;;;;4.90;3.20;;;;;;;5.66;73.66;100263.64;107612;1254;112221;-59
2023/02/26 06:46:49;;;;;;;6.00;2.60;;;;;;;5.67;73.85;100267.48;107610;1254;108605;-61
2023/02/26 06:49:18;;;;;;;4.20;2.70;;;;;;;5.67;73.67;100264.45;107590;1254;109455;-60
2023/02/26 06:51:46;;;;;;;3.80;2.60;;;;;;;5.66;74.18;100268.74;107563;1253;97823;-60
2023/02/26 06:54:15;;;;;;;3.90;2.70;;;;;;;5.63;73.87;100273.10;107575;1257;98197;-60
2023/02/26 06:56:43;;;;;;;6.60;2.70;;;;;;;5.64;73.67;100275.87;107625;1254;111848;-61
2023/02/26 06:59:14;;;;;;;3.90;2.10;;;;;;;5.68;73.88;100278.77;107597;1254;108968;-61
2023/02/26 07:01:42;;;;;;;4.00;2.50;;;;;;;5.73;73.94;100284.83;107570;1254;108228;-59
2023/02/26 07:04:11;;;;;;;6.30;2.40;;;;;;;5.79;73.95;100289.67;107585;1254;97832;-60
2023/02/26 07:06:39;;;;;;;3.90;2.60;;;;;;;5.85;73.72;100287.83;107574;1252;97832;-61
2023/02/26 07:09:08;;;;;;;5.40;3.10;;;;;;;5.89;73.66;100284.85;107641;1254;112293;-59
2023/02/26 07:11:36;;;;;;;5.70;3.60;;;;;;;5.92;73.45;100285.29;107471;1254;109701;-59
2023/02/26 07:14:04;;;;;;;4.30;2.70;;;;;;;5.93;73.92;100282.38;107538;1254;107802;-59
2023/02/26 07:16:33;;;;;;;3.80;3.00;;;;;;;5.84;74.09;100284.64;107561;1254;97813;-60
2023/02/26 07:19:01;;;;;;;5.10;3.50;;;;;;;5.78;74.32;100280.16;107587;1254;97733;-60
2023/02/26 07:21:30;;;;;;;3.60;2.60;;;;;;;5.79;73.82;100287.31;107543;1254;112096;-61
2023/02/26 07:23:58;;;;;;;10.70;3.60;;;;;;;5.83;73.99;100292.55;107599;1254;111090;-60
2023/02/26 07:26:27;;;;;;;6.60;3.60;;;;;;;5.87;73.73;100291.05;107602;1254;108173;-60
2023/02/26 07:28:55;;;;;;;6.30;3.40;;;;;;;5.89;73.82;100294.42;107605;1254;97835;-60
2023/02/26 07:31:24;;;;;;;8.40;4.70;;;;;;;5.92;73.96;100290.82;107597;1254;98558;-60
2023/02/26 07:33:52;;;;;;;6.60;3.40;;;;;;;5.94;73.97;100296.52;107603;1257;112310;-60
2023/02/26 07:36:21;;;;;;;6.20;3.50;;;;;;;5.94;73.81;100302.23;107583;1254;109686;-61
2023/02/26 07:38:49;;;;;;;26.10;12.00;;;;;;;5.96;73.67;100306.88;107576;1253;108763;-60
2023/02/26 07:41:18;;;;;;;6.90;4.10;;;;;;;5.98;73.89;100309.04;107612;1254;98029;-61
2023/02/26 07:43:47;;;;;;;4.90;2.60;;;;;;;5.96;73.84;100312.94;107602;1254;97828;-61
2023/02/26 07:46:15;;;;;;;4.20;2.90;;;;;;;5.93;73.56;100310.09;107604;1254;111793;-60
2023/02/26 07:48:44;;;;;;;8.40;5.60;;;;;;;5.93;73.48;100313.67;107528;1254;110130;-60
2023/02/26 07:51:12;;;;;;;5.10;3.20;;;;;;;5.91;73.63;100317.73;107557;1253;107914;-61
2023/02/26 07:53:40;;;;;;;5.10;2.90;;;;;;;5.88;73.60;100317.45;107590;1254;98253;-60
2023/02/26 07:56:09;;;;;;;4.10;3.00;;;;;;;5.84;73.99;100324.39;107560;1256;97812;-61
2023/02/26 07:58:37;;;;;;;4.90;2.90;;;;;;;5.68;74.12;100321.82;107603;1253;112207;-59
2023/02/26 08:01:05;;;;;;;3.60;2.70;;;;;;;5.55;74.30;100322.76;107602;1254;109206;-59
2023/02/26 08:03:34;;;;;;;7.90;2.80;;;;;;;5.49;74.52;100329.63;107609;1254;108147;-59
2023/02/26 08:06:04;;;;;;;3.40;2.50;;;;;;;5.45;74.77;100331.71;107549;1253;97809;-60
2023/02/26 08:08:32;;;;;;;4.80;3.30;;;;;;;5.43;74.70;100341.27;107628;1254;97794;-60
2023/02/26 08:11:01;;;;;;;4.80;3.20;;;;;;;5.45;74.84;100339.85;107581;1254;112745;-60
2023/02/26 08:13:29;;;;;;;3.50;2.90;;;;;;;5.48;75.28;100339.80;107649;1254;109021;-59
2023/02/26 08:15:57;;;;;;;5.00;3.20;;;;;;;5.47;75.42;100331.33;107563;1254;108152;-60
2023/02/26 08:18:26;;;;;;;4.50;3.30;;;;;;;5.48;75.46;100332.17;107588;1254;97326;-61
2023/02/26 08:20:55;;;;;;;4.90;3.40;;;;;;;5.50;75.71;100327.92;107591;1253;98347;-60
2023/02/26 08:23:25;;;;;;;5.60;3.00;;;;;;;5.52;75.45;100328.86;107586;1254;112072;-60
2023/02/26 08:26:09;;;;;;;7.80;3.50;;;;;;;5.58;75.73;100334.63;107595;1253;110053;-60
2023/02/26 08:28:37;;;;;;;4.00;2.60;;;;;;;5.60;75.72;100335.73;107588;1253;108582;-59
2023/02/26 08:31:06;;;;;;;5.00;3.40;;;;;;;5.59;76.01;100333.71;107577;1254;97875;-61
2023/02/26 08:33:34;;;;;;;5.00;3.00;;;;;;;5.54;76.04;100333.20;107631;1256;97877;-60
2023/02/26 08:36:03;;;;;;;6.40;3.30;;;;;;;5.53;76.18;100335.41;107590;1254;111777;-59
2023/02/26 08:38:32;;;;;;;4.70;3.00;;;;;;;5.55;76.58;100337.70;107499;1254;109996;-59
2023/02/26 08:41:01;;;;;;;6.80;3.30;;;;;;;5.51;75.95;100337.50;107557;1254;108171;-59
2023/02/26 08:43:29;;;;;;;4.60;2.70;;;;;;;5.49;76.17;100344.94;107602;1254;97873;-59
2023/02/26 08:45:58;;;;;;;8.30;3.80;;;;;;;5.48;76.26;100346.55;107590;1253;97797;-60
2023/02/26 08:48:27;;;;;;;9.30;4.70;;;;;;;5.47;75.95;100351.43;107574;1253;111959;-60
2023/02/26 08:50:55;;;;;;;7.30;3.60;;;;;;;5.54;76.23;100345.24;107605;1256;109601;-60
2023/02/26 08:53:23;;;;;;;7.60;4.30;;;;;;;5.63;76.24;100344.82;107570;1254;107617;-59
2023/02/26 08:55:52;;;;;;;6.10;3.60;;;;;;;5.68;76.34;100345.84;107577;1254;97825;-60
2023/02/26 08:58:21;;;;;;;6.10;3.40;;;;;;;5.71;76.07;100344.75;107590;1254;98446;-60
2023/02/26 09:00:50;;;;;;;7.20;2.30;;;;;;;5.69;75.89;100343.66;107585;1253;111097;-60
2023/02/26 09:03:18;;;;;;;6.00;3.70;;;;;;;5.70;75.84;100350.18;107613;1253;110185;-60
2023/02/26 09:05:46;;;;;;;5.60;3.00;;;;;;;5.73;76.04;100348.14;107579;1253;108876;-59
2023/02/26 09:08:15;;;;;;;6.60;4.00;;;;;;;5.78;76.06;100343.81;107574;1256;97928;-59
2023/02/26 09:10:43;;;;;;;7.40;3.30;;;;;;;5.77;75.82;100342.81;107575;1254;98395;-60
2023/02/26 09:13:11;;;;;;;5.60;3.40;;;;;;;5.85;76.25;100346.89;107448;1254;111893;-59
2023/02/26 09:15:39;;;;;;;7.70;3.90;;;;;;;5.90;76.00;100352.37;107588;1253;109862;-59
2023/02/26 09:18:14;;;;;;;5.40;3.20;;;;;;;5.87;75.99;100358.30;107607;1253;107794;-60
2023/02/26 09:20:43;;;;;;;6.50;3.50;;;;;;;5.75;75.52;100363.61;107611;1254;97822;-61
2023/02/26 09:23:12;;;;;;;5.60;3.50;;;;;;;5.66;75.36;100365.77;107614;1256;97985;-61
2023/02/26 09:25:40;;;;;;;4.80;3.80;;;;;;;5.64;75.77;100367.34;107577;1254;112893;-60
2023/02/26 09:28:08;;;;;;;5.90;3.50;;;;;;;5.63;75.94;100378.75;107600;1254;110064;-60
2023/02/26 09:30:37;;;;;;;7.30;3.70;;;;;;;5.59;75.76;100377.12;107586;1253;109081;-59
2023/02/26 09:33:05;;;;;;;4.30;2.50;;;;;;;5.58;75.72;100373.10;107580;1254;97947;-60
2023/02/26 09:35:33;;;;;;;8.40;4.60;;;;;;;5.55;75.78;100373.48;107604;1256;97733;-59
2023/02/26 09:38:02;;;;;;;6.90;4.00;;;;;;;5.51;75.90;100375.38;107566;1254;112064;-59
2023/02/26 09:40:31;;;;;;;7.70;4.00;;;;;;;5.53;75.80;100379.33;107622;1254;108830;-60
2023/02/26 09:43:15;;;;;;;6.10;3.20;;;;;;;5.54;75.82;100378.17;107582;1252;108771;-61
2023/02/26 09:45:45;;;;;;;;;;;;;;;5.57;75.94;100385.44;107586;1253;97674;-60
2023/02/26 09:48:17;;;;;;;7.30;3.50;;;;;;;5.59;75.92;100388.45;107615;1253;97835;-60
2023/02/26 09:50:52;;;;;;;9.30;4.00;;;;;;;5.60;75.94;100388.95;107588;1254;112271;-61
2023/02/26 09:53:37;;;;;;;11.30;4.50;;;;;;;5.58;76.24;100388.90;106840;1253;1048907;-63
2023/02/26 09:56:26;;;;;;;8.00;3.00;;;;;;;5.63;76.28;100389.30;107565;1254;109225;-61
2023/02/26 09:58:55;;;;;;;2.90;2.10;;;;;;;5.67;76.38;100400.00;107562;1254;97840;-61
2023/02/26 10:01:42;;;;;;;2.20;1.80;;;;;;;5.69;76.36;100392.42;107603;1253;97841;-60
2023/02/26 10:04:29;;;;;;;2.00;1.40;;;;;;;5.67;76.36;100384.18;107624;1254;112093;-60
2023/02/26 10:07:19;;;;;;;1.70;1.30;;;;;;;5.61;76.43;100385.45;107595;1254;110007;-64
2023/02/26 10:10:10;;;;;;;1.80;1.20;;;;;;;5.60;76.28;100383.05;107539;1254;108614;-59
2023/02/26 10:12:42;;;;;;;9.60;1.90;;;;;;;5.62;76.49;100385.05;107220;1254;97801;-61
2023/02/26 10:15:21;;;;;;;2.80;1.90;;;;;;;5.61;76.39;100390.10;107591;1254;97742;-59
2023/02/26 10:18:01;;;;;;;4.40;1.90;;;;;;;5.66;76.51;100390.32;107627;1253;112358;-60
2023/02/26 10:20:59;;;;;;;1.50;1.20;;;;;;;5.72;76.56;100393.25;107633;1254;110113;-60
2023/02/26 10:23:40;;;;;;;3.80;1.10;;;;;;;5.66;76.27;100397.95;107401;1254;107833;-63
2023/02/26 10:26:12;;;;;;;2.30;1.40;;;;;;;5.62;76.20;100409.60;107424;1254;97727;-60
2023/02/26 10:29:15;;;;;;;1.40;1.30;;;;;;;5.59;76.17;100414.27;107456;1253;97724;-60
2023/02/26 10:32:05;;;;;;;2.40;1.70;;;;;;;5.59;76.37;100414.28;107442;1254;112358;-59
2023/02/26 10:34:43;;;;;;;1.50;1.40;;;;;;;5.60;76.45;100419.70;107443;1254;108389;-61
2023/02/26 10:37:19;;;;;;;1.80;1.40;;;;;;;5.54;76.29;100417.11;107441;1254;109421;-61
2023/02/26 10:39:56;;;;;;;1.90;1.30;;;;;;;5.51;76.56;100418.09;107580;1254;99132;-60
2023/02/26 10:42:41;;;;;;;2.20;1.10;;;;;;;5.49;76.95;100428.00;107599;1253;98385;-59
2023/02/26 10:45:39;;;;;;;2.60;1.30;;;;;;;5.43;76.76;100425.08;107609;1254;112201;-61
2023/02/26 10:48:23;;;;;;;1.90;1.50;;;;;;;5.38;76.78;100417.26;107594;1253;110061;-61
2023/02/26 10:50:57;;;;;;;1.40;1.10;;;;;;;5.43;76.81;100425.94;107606;1256;108003;-61
2023/02/26 10:53:33;;;;;;;2.70;1.40;;;;;;;5.50;76.97;100423.46;107589;1254;97796;-60
2023/02/26 10:56:21;;;;;;;3.10;1.30;;;;;;;5.53;76.50;100421.23;107636;1254;97752;-60
2023/02/26 10:58:51;;;;;;;4.30;1.60;;;;;;;5.58;76.47;100425.95;107619;1254;113129;-60
2023/02/26 11:01:22;;;;;;;2.80;1.20;;;;;;;5.58;76.61;100429.12;107567;1253;110322;-60
2023/02/26 11:04:05;;;;;;;4.70;2.40;;;;;;;5.57;76.73;100430.23;107611;1253;108863;-61
2023/02/26 11:06:39;;;;;;;2.20;1.80;;;;;;;5.56;76.65;100433.50;107648;1253;97806;-60
2023/02/26 11:09:33;;;;;;;2.40;1.70;;;;;;;5.63;76.95;100428.39;107630;1253;97814;-61
2023/02/26 11:12:11;;;;;;;3.70;2.50;;;;;;;5.57;76.95;100421.74;107391;1257;113070;-61
2023/02/26 11:14:42;;;;;;;2.60;1.60;;;;;;;5.50;76.97;100422.26;107446;1254;110165;-59
2023/02/26 11:17:28;;;;;;;3.10;1.70;;;;;;;5.45;76.89;100420.83;107424;1254;108504;-60
2023/02/26 11:20:31;;;;;;;5.20;2.10;;;;;;;5.42;76.86;100425.51;107428;1254;97935;-59
2023/02/26 11:23:02;;;;;;;5.70;3.00;;;;;;;5.40;77.45;100425.95;107438;1254;98372;-60
2023/02/26 11:25:33;;;;;;;2.60;1.90;;;;;;;5.44;77.71;100426.91;107430;1254;111542;-60
2023/02/26 11:28:06;;;;;;;2.60;1.80;;;;;;;5.49;77.92;100416.92;107345;1254;109783;-61
2023/02/26 11:30:37;;;;;;;2.00;1.40;;;;;;;5.53;77.67;100425.04;107434;1253;108236;-60
2023/02/26 11:33:16;;;;;;;1.60;1.20;;;;;;;5.53;77.62;100432.52;107485;1254;97930;-62
2023/02/26 11:35:45;;;;;;;1.40;1.30;;;;;;;5.50;77.61;100430.60;107475;1253;98366;-60
2023/02/26 11:38:19;;;;;;;2.00;1.80;;;;;;;5.51;77.86;100433.88;107491;1254;111792;-60
2023/02/26 11:40:55;;;;;;;3.10;1.60;;;;;;;5.50;77.79;100434.98;107642;1254;109031;-61
2023/02/26 11:43:35;;;;;;;3.00;1.70;;;;;;;5.43;77.83;100442.79;107589;1254;108715;-61
2023/02/26 11:46:04;;;;;;;2.80;1.70;;;;;;;5.41;78.08;100444.38;107552;1253;97908;-63
2023/02/26 11:48:47;;;;;;;2.70;1.30;;;;;;;5.36;78.75;100442.65;107614;1254;98376;-62
2023/02/26 11:51:23;;;;;;;1.70;1.50;;;;;;;5.32;78.64;100441.14;107637;1254;112055;-60